M-RH(METAR)
02/18 15:00
METAR M-RH 180600Z 34002KT 9999 FEW030 13/02 Q1025 RMK 1CU030 A3027
WIND EST=
戻る
トップページへ戻る
IMOC Co,.Ltd.